Time;durP1;ratioP1;P1;durP2;ratioP2;P2;SDS_P1;SDS_P2;PMS_P1;PMS_P2;Temp;Humidity;BMP_temperature;BMP_pressure;BME280_temperature;BME280_humidity;BME280_pressure;Samples;Min_cycle;Max_cycle;Signal;HPM_P1;HPM_P2
2021/01/14 00:02:25;;;;;;;2.27;1.77;;;8.20;99.90;;;;;;5013263;28;20243;-77
2021/01/14 00:04:53;;;;;;;2.20;1.33;;;8.20;99.90;;;;;;5012791;28;20746;-72
2021/01/14 00:07:20;;;;;;;2.10;1.50;;;8.20;99.90;;;;;;5012841;28;20211;-73
2021/01/14 00:09:47;;;;;;;3.67;2.20;;;8.10;99.90;;;;;;5013364;28;20234;-74
2021/01/14 00:12:13;;;;;;;5.13;3.10;;;8.00;99.90;;;;;;5012942;28;20208;-85
2021/01/14 00:14:40;;;;;;;3.40;2.37;;;8.00;99.90;;;;;;5013139;28;20208;-85
2021/01/14 00:17:06;;;;;;;3.70;2.63;;;7.90;99.90;;;;;;5012822;28;20770;-82
2021/01/14 00:19:33;;;;;;;3.63;2.60;;;7.80;99.90;;;;;;5012753;28;20688;-81
2021/01/14 00:22:00;;;;;;;2.47;2.07;;;7.60;99.90;;;;;;5012175;28;20747;-77
2021/01/14 00:24:27;;;;;;;2.57;1.77;;;7.50;99.90;;;;;;5012733;28;20254;-83
2021/01/14 00:26:53;;;;;;;2.73;2.07;;;7.50;99.90;;;;;;5012737;28;20204;-78
2021/01/14 00:29:20;;;;;;;4.43;2.70;;;7.60;99.90;;;;;;5012925;28;20204;-80
2021/01/14 00:31:46;;;;;;;2.73;2.00;;;7.70;99.90;;;;;;5013236;28;20208;-83
2021/01/14 00:34:14;;;;;;;2.40;2.17;;;7.70;99.90;;;;;;5011172;28;20695;-77
2021/01/14 00:39:27;;;;;;;2.20;2.00;;;7.80;99.90;;;;;;4991932;28;20220;-80
2021/01/14 00:41:55;;;;;;;1.97;1.60;;;7.80;99.90;;;;;;5012232;28;20232;-86
2021/01/14 00:44:21;;;;;;;2.57;1.80;;;7.80;99.90;;;;;;5012394;28;20212;-80
2021/01/14 00:46:48;;;;;;;3.83;1.70;;;7.80;99.90;;;;;;5012482;28;20231;-80
2021/01/14 00:49:14;;;;;;;2.93;1.70;;;7.80;99.90;;;;;;5012072;28;20270;-78
2021/01/14 00:51:41;;;;;;;2.33;1.33;;;7.80;99.90;;;;;;5011920;28;20266;-78
2021/01/14 00:54:08;;;;;;;4.67;1.13;;;7.80;99.90;;;;;;5011806;28;20586;-77
2021/01/14 00:56:37;;;;;;;2.23;1.07;;;7.80;99.90;;;;;;5011637;28;20634;-80
2021/01/14 00:59:04;;;;;;;1.83;1.33;;;7.80;99.90;;;;;;5011891;28;20208;-77
2021/01/14 01:01:31;;;;;;;2.37;1.57;;;7.80;99.90;;;;;;5012066;28;20661;-84
2021/01/14 01:03:58;;;;;;;1.53;0.93;;;7.80;99.90;;;;;;5011305;28;20204;-82
2021/01/14 01:06:32;;;;;;;1.03;0.77;;;7.90;99.90;;;;;;5011974;28;20204;-82
2021/01/14 01:08:58;;;;;;;0.77;0.70;;;7.90;99.90;;;;;;5011386;28;20212;-73
2021/01/14 01:11:25;;;;;;;2.67;1.73;;;7.80;99.90;;;;;;5011974;28;20204;-74
2021/01/14 01:13:52;;;;;;;1.73;0.90;;;7.80;99.90;;;;;;5011446;28;20219;-77
2021/01/14 01:16:19;;;;;;;1.03;0.60;;;7.90;99.90;;;;;;5011498;28;20243;-77
2021/01/14 01:18:46;;;;;;;1.30;0.90;;;7.90;99.90;;;;;;5012123;28;20306;-78
2021/01/14 01:21:12;;;;;;;1.13;0.90;;;7.90;99.90;;;;;;5011354;28;20205;-77
2021/01/14 01:23:39;;;;;;;2.33;1.23;;;7.90;99.90;;;;;;5011805;28;20204;-79
2021/01/14 01:26:06;;;;;;;1.30;0.73;;;7.90;99.90;;;;;;5011121;28;20212;-79
2021/01/14 01:28:32;;;;;;;2.27;0.80;;;7.90;99.90;;;;;;5011476;28;20579;-83
2021/01/14 01:31:00;;;;;;;1.53;1.43;;;7.90;99.90;;;;;;5011057;28;20208;-81
2021/01/14 01:33:27;;;;;;;2.07;1.20;;;7.90;99.90;;;;;;5011344;28;20205;-79
2021/01/14 01:35:55;;;;;;;4.17;1.03;;;7.90;99.90;;;;;;5010694;28;20231;-81
2021/01/14 01:38:21;;;;;;;2.30;1.33;;;7.90;99.90;;;;;;5011598;28;20211;-80
2021/01/14 01:40:54;;;;;;;2.40;1.33;;;7.90;99.90;;;;;;5011399;28;20587;-78
2021/01/14 01:43:21;;;;;;;2.33;1.23;;;7.80;99.90;;;;;;5010749;28;20208;-77
2021/01/14 01:45:48;;;;;;;2.63;1.40;;;7.80;99.90;;;;;;5010776;28;20220;-77
2021/01/14 01:48:16;;;;;;;1.87;1.53;;;7.80;99.90;;;;;;5024676;28;20205;-77
2021/01/14 01:50:44;;;;;;;2.63;1.40;;;7.80;99.90;;;;;;5011706;28;20581;-77
2021/01/14 01:53:11;;;;;;;4.77;1.67;;;7.80;99.90;;;;;;5010363;28;20212;-77
2021/01/14 01:55:38;;;;;;;1.90;1.60;;;7.80;99.90;;;;;;5010591;28;20703;-77
2021/01/14 01:58:05;;;;;;;5.50;2.83;;;7.80;99.90;;;;;;5010191;28;20629;-77
2021/01/14 02:00:31;;;;;;;3.00;1.77;;;7.80;99.90;;;;;;5011052;28;20201;-77
2021/01/14 02:02:58;;;;;;;5.00;2.17;;;7.80;99.90;;;;;;5010527;28;20208;-78
2021/01/14 02:05:25;;;;;;;4.93;2.47;;;7.80;99.90;;;;;;5010788;28;20700;-79
2021/01/14 02:08:07;;;;;;;2.43;2.10;;;7.80;99.90;;;;;;5010625;28;20219;-76
2021/01/14 02:10:36;;;;;;;3.50;1.80;;;7.80;99.90;;;;;;5010531;28;20218;-79
2021/01/14 02:13:12;;;;;;;2.17;1.83;;;7.80;99.90;;;;;;5010474;28;20215;-77
2021/01/14 02:15:39;;;;;;;2.83;2.23;;;7.80;99.90;;;;;;5010572;28;20656;-78
2021/01/14 02:18:07;;;;;;;3.43;2.13;;;7.80;99.90;;;;;;5010339;28;20597;-76
2021/01/14 02:20:36;;;;;;;5.27;2.30;;;7.90;99.90;;;;;;5010586;28;20212;-78
2021/01/14 02:23:06;;;;;;;2.67;2.30;;;7.90;99.90;;;;;;5010341;28;20209;-77
2021/01/14 02:25:36;;;;;;;3.90;1.90;;;7.90;99.90;;;;;;5010591;28;20582;-75
2021/01/14 02:28:04;;;;;;;2.37;2.13;;;7.90;99.90;;;;;;5010360;28;20212;-76
2021/01/14 02:30:31;;;;;;;4.43;2.33;;;7.80;99.90;;;;;;5010970;28;20625;-77
2021/01/14 02:32:57;;;;;;;3.87;2.50;;;7.80;99.90;;;;;;5009971;28;20204;-77
2021/01/14 02:35:23;;;;;;;7.13;2.63;;;7.80;99.90;;;;;;5010641;28;20262;-77
2021/01/14 02:37:50;;;;;;;5.20;2.13;;;7.80;99.90;;;;;;5010459;28;20236;-77
2021/01/14 02:40:16;;;;;;;3.73;2.37;;;7.70;99.90;;;;;;5011153;28;20374;-75
2021/01/14 02:42:43;;;;;;;2.70;2.30;;;7.70;99.90;;;;;;5010893;28;20208;-74
2021/01/14 02:45:12;;;;;;;2.90;2.03;;;7.70;99.90;;;;;;5009955;28;20675;-74
2021/01/14 02:47:42;;;;;;;3.23;1.87;;;7.60;99.90;;;;;;5010482;28;20212;-77
2021/01/14 02:50:11;;;;;;;3.17;2.63;;;7.60;99.90;;;;;;5009989;28;20585;-76
2021/01/14 02:52:39;;;;;;;4.47;1.40;;;7.60;99.90;;;;;;5010663;28;20583;-76
2021/01/14 02:55:07;;;;;;;3.00;2.13;;;7.60;99.90;;;;;;5009794;28;20230;-76
2021/01/14 02:57:35;;;;;;;6.80;2.40;;;7.60;99.90;;;;;;5012458;28;20289;-76
2021/01/14 03:00:01;;;;;;;3.00;1.93;;;7.60;99.90;;;;;;5013739;28;20235;-75
2021/01/14 03:02:29;;;;;;;2.23;2.00;;;7.60;99.90;;;;;;5013774;28;20205;-72
2021/01/14 03:04:56;;;;;;;3.43;2.10;;;7.60;99.90;;;;;;5013497;28;20212;-75
2021/01/14 03:07:22;;;;;;;3.13;1.90;;;7.60;99.90;;;;;;5013847;28;20591;-75
2021/01/14 03:09:48;;;;;;;3.47;1.90;;;7.50;99.90;;;;;;5014214;28;20626;-72
2021/01/14 03:12:15;;;;;;;4.50;2.33;;;7.40;99.90;;;;;;5013808;28;20722;-72
2021/01/14 03:14:41;;;;;;;3.63;1.97;;;7.40;99.90;;;;;;5013776;28;20714;-76
2021/01/14 03:17:08;;;;;;;6.37;2.23;;;7.40;99.90;;;;;;5013026;28;20227;-74
2021/01/14 03:19:35;;;;;;;4.03;2.50;;;7.40;99.90;;;;;;5014094;28;20209;-76
2021/01/14 03:22:02;;;;;;;3.63;2.20;;;7.50;99.90;;;;;;5011255;28;20211;-73
2021/01/14 03:24:29;;;;;;;4.57;2.50;;;7.50;99.90;;;;;;5013865;28;20204;-73
2021/01/14 03:26:56;;;;;;;3.00;2.00;;;7.50;99.90;;;;;;5013315;28;20215;-74
2021/01/14 03:29:22;;;;;;;7.57;2.73;;;7.50;99.90;;;;;;5013178;28;20575;-76
2021/01/14 03:31:48;;;;;;;7.13;2.80;;;7.50;99.90;;;;;;5013302;28;20706;-76
2021/01/14 03:34:15;;;;;;;3.77;2.90;;;7.50;99.90;;;;;;5013165;28;20215;-73
2021/01/14 03:36:57;;;;;;;9.07;2.90;;;7.50;99.90;;;;;;5013732;28;20247;-75
2021/01/14 03:39:24;;;;;;;4.93;3.10;;;7.50;99.90;;;;;;5012949;28;20574;-75
2021/01/14 03:41:52;;;;;;;5.10;2.30;;;7.40;99.90;;;;;;5013125;28;20214;-72
2021/01/14 03:44:18;;;;;;;7.30;3.60;;;7.40;99.90;;;;;;5012960;28;20266;-75
2021/01/14 03:46:49;;;;;;;5.17;2.90;;;7.40;99.90;;;;;;5013558;28;20626;-78
2021/01/14 03:49:16;;;;;;;5.33;3.03;;;7.40;99.90;;;;;;5013800;28;20226;-75
2021/01/14 03:51:44;;;;;;;4.27;2.60;;;7.40;99.90;;;;;;5013214;28;20289;-78
2021/01/14 03:54:11;;;;;;;6.50;3.67;;;7.40;99.90;;;;;;5012868;28;20212;-78
2021/01/14 03:56:38;;;;;;;6.40;3.10;;;7.40;99.90;;;;;;5012423;28;20671;-75
2021/01/14 03:59:05;;;;;;;4.33;3.37;;;7.40;99.90;;;;;;5012787;28;20222;-78
2021/01/14 04:01:32;;;;;;;4.37;3.30;;;7.30;99.90;;;;;;5013028;28;20208;-77
2021/01/14 04:03:58;;;;;;;7.27;3.90;;;7.20;99.90;;;;;;5012929;28;20220;-77
2021/01/14 04:06:32;;;;;;;5.00;3.30;;;7.20;99.90;;;;;;5012772;28;20561;-75
2021/01/14 04:09:00;;;;;;;4.10;3.10;;;7.20;99.90;;;;;;5011961;28;20230;-77
2021/01/14 04:11:27;;;;;;;6.53;3.93;;;7.20;99.90;;;;;;5012847;28;20208;-74
2021/01/14 04:13:54;;;;;;;4.73;3.70;;;7.20;99.90;;;;;;5012057;28;20215;-74
2021/01/14 04:16:20;;;;;;;4.70;3.50;;;7.30;99.90;;;;;;5012936;28;20232;-73
2021/01/14 04:18:47;;;;;;;5.53;4.27;;;7.30;99.90;;;;;;5012625;28;20209;-73
2021/01/14 04:21:14;;;;;;;5.10;4.23;;;7.30;99.90;;;;;;5012564;28;20220;-77
2021/01/14 04:23:41;;;;;;;6.50;4.30;;;7.30;99.90;;;;;;5012617;28;20214;-73
2021/01/14 04:26:09;;;;;;;6.33;4.20;;;7.30;99.90;;;;;;5012065;28;20671;-74
2021/01/14 04:28:37;;;;;;;5.80;4.13;;;7.20;99.90;;;;;;5012214;28;20208;-76
2021/01/14 04:31:03;;;;;;;8.57;4.73;;;7.20;99.90;;;;;;5011877;28;20207;-73
2021/01/14 04:33:30;;;;;;;6.13;4.10;;;7.20;99.90;;;;;;5012345;28;20622;-78
2021/01/14 04:35:58;;;;;;;7.87;4.80;;;7.20;99.90;;;;;;5011888;28;20216;-79
2021/01/14 04:38:25;;;;;;;6.97;4.77;;;7.20;99.90;;;;;;5012037;28;20208;-78
2021/01/14 04:40:56;;;;;;;6.83;4.87;;;7.10;99.90;;;;;;5011921;28;20219;-76
2021/01/14 04:43:25;;;;;;;13.07;5.23;;;7.10;99.90;;;;;;5012077;28;20214;-78
2021/01/14 04:45:55;;;;;;;6.10;4.73;;;7.00;99.90;;;;;;5011878;28;20286;-74
2021/01/14 04:48:22;;;;;;;6.13;4.83;;;7.00;99.90;;;;;;5012282;28;20230;-76
2021/01/14 04:50:50;;;;;;;7.80;5.70;;;6.90;99.90;;;;;;5012266;28;20226;-77
2021/01/14 04:53:20;;;;;;;8.03;5.60;;;6.90;99.90;;;;;;5012035;28;20718;-76
2021/01/14 04:55:48;;;;;;;6.37;5.13;;;7.00;99.90;;;;;;5012338;28;20216;-73
2021/01/14 04:58:17;;;;;;;8.97;5.37;;;7.10;99.90;;;;;;5011315;28;20255;-74
2021/01/14 05:00:49;;;;;;;6.87;6.00;;;7.20;99.90;;;;;;5012171;28;20239;-74
2021/01/14 05:03:21;;;;;;;6.80;5.00;;;7.20;99.90;;;;;;5011946;28;20211;-76
2021/01/14 05:05:49;;;;;;;7.83;5.03;;;7.10;99.90;;;;;;5012024;28;20208;-77
2021/01/14 05:08:17;;;;;;;6.53;5.13;;;7.00;99.90;;;;;;5012177;28;20296;-72
2021/01/14 05:10:44;;;;;;;5.90;4.53;;;7.00;99.90;;;;;;5012278;28;20204;-77
2021/01/14 05:13:12;;;;;;;8.03;5.43;;;7.10;99.90;;;;;;5011156;28;20212;-79
2021/01/14 05:15:39;;;;;;;9.90;5.73;;;7.10;99.90;;;;;;5011729;28;20593;-79
2021/01/14 05:18:07;;;;;;;8.80;5.63;;;7.10;99.90;;;;;;5011229;28;20242;-75
2021/01/14 05:20:33;;;;;;;5.83;4.27;;;7.10;99.90;;;;;;5011171;28;20212;-75
2021/01/14 05:23:02;;;;;;;6.07;4.60;;;7.10;99.90;;;;;;5011003;28;20238;-77
2021/01/14 05:25:28;;;;;;;6.27;4.90;;;7.10;99.90;;;;;;5008693;28;20219;-76
2021/01/14 05:28:08;;;;;;;10.97;5.10;;;7.20;99.90;;;;;;5009544;28;20212;-78
2021/01/14 05:30:34;;;;;;;7.60;4.57;;;7.20;99.90;;;;;;5011201;28;20591;-78
2021/01/14 05:33:01;;;;;;;5.87;5.07;;;7.20;99.90;;;;;;5006059;28;20212;-75
2021/01/14 05:35:30;;;;;;;7.67;5.90;;;7.20;99.90;;;;;;5004635;28;20291;-76
2021/01/14 05:38:03;;;;;;;6.23;4.50;;;7.20;99.90;;;;;;5009885;28;20235;-75
2021/01/14 05:40:30;;;;;;;4.83;4.30;;;7.30;99.90;;;;;;5010930;28;20207;-74
2021/01/14 05:43:05;;;;;;;5.10;3.90;;;7.20;99.90;;;;;;5008855;28;20641;-74
2021/01/14 05:45:32;;;;;;;6.30;4.10;;;7.30;99.90;;;;;;5011057;28;20203;-78
2021/01/14 05:48:09;;;;;;;9.93;5.03;;;7.30;99.90;;;;;;5010749;28;20257;-77
2021/01/14 05:50:47;;;;;;;4.03;2.93;;;7.30;99.90;;;;;;5011085;28;20234;-75
2021/01/14 05:53:15;;;;;;;7.37;4.00;;;7.30;99.90;;;;;;5010554;28;20567;-74
2021/01/14 05:55:44;;;;;;;8.83;4.27;;;7.30;99.90;;;;;;5010472;28;20247;-73
2021/01/14 05:58:17;;;;;;;6.90;3.80;;;7.30;99.90;;;;;;5010386;28;20232;-76
2021/01/14 06:00:45;;;;;;;5.47;3.77;;;7.50;99.90;;;;;;5010949;28;20743;-73
2021/01/14 06:03:28;;;;;;;5.60;3.93;;;7.40;99.90;;;;;;5010150;28;20246;-75
2021/01/14 06:05:57;;;;;;;5.07;3.57;;;7.40;99.90;;;;;;5009951;28;20205;-73
2021/01/14 06:08:25;;;;;;;6.97;4.67;;;7.40;99.90;;;;;;5010771;28;20262;-77
2021/01/14 06:10:51;;;;;;;3.90;3.23;;;7.40;99.90;;;;;;5010187;28;20212;-76
2021/01/14 06:13:18;;;;;;;4.03;3.37;;;7.40;99.90;;;;;;5010380;28;20591;-71
2021/01/14 06:15:57;;;;;;;6.13;4.63;;;7.40;99.90;;;;;;5010746;28;20643;-73
2021/01/14 06:18:24;;;;;;;6.63;4.27;;;7.40;99.90;;;;;;5010240;28;20649;-74
2021/01/14 06:20:52;;;;;;;6.47;3.73;;;7.30;99.90;;;;;;5010002;28;20652;-72
2021/01/14 06:23:22;;;;;;;5.17;3.83;;;7.40;99.90;;;;;;5010489;28;20208;-71
2021/01/14 06:25:50;;;;;;;4.60;4.20;;;7.40;99.90;;;;;;5010717;28;20286;-77
2021/01/14 06:28:19;;;;;;;4.63;3.73;;;7.40;99.90;;;;;;5010965;28;20212;-73
2021/01/14 06:31:07;;;;;;;6.10;3.37;;;7.40;99.90;;;;;;5011158;28;20574;-75
2021/01/14 06:33:34;;;;;;;4.43;4.00;;;7.30;99.90;;;;;;5014420;28;20679;-77
2021/01/14 06:36:08;;;;;;;6.10;4.17;;;7.40;99.90;;;;;;5013770;28;20690;-76
2021/01/14 06:38:46;;;;;;;5.07;4.30;;;7.30;99.90;;;;;;5014073;28;20702;-76
2021/01/14 06:41:17;;;;;;;8.33;3.63;;;7.30;99.90;;;;;;5014578;28;20701;-76
2021/01/14 06:43:45;;;;;;;8.13;4.27;;;7.40;99.90;;;;;;5014903;28;20204;-74
2021/01/14 06:46:17;;;;;;;5.33;3.70;;;7.40;99.90;;;;;;5013888;28;20211;-77
2021/01/14 06:49:00;;;;;;;5.37;2.93;;;7.40;99.90;;;;;;5014420;28;20270;-76
2021/01/14 06:52:05;;;;;;;8.00;3.60;;;7.40;99.90;;;;;;5012312;28;20680;-75
2021/01/14 06:54:38;;;;;;;4.17;3.77;;;7.40;99.90;;;;;;5011197;28;20231;-75
2021/01/14 06:57:15;;;;;;;3.90;3.43;;;7.40;99.90;;;;;;5013533;28;20232;-75
2021/01/14 06:59:42;;;;;;;6.77;3.53;;;7.30;99.90;;;;;;5010752;28;20238;-75
2021/01/14 07:02:47;;;;;;;8.47;4.37;;;7.30;99.90;;;;;;5013558;28;20676;-75
2021/01/14 07:05:27;;;;;;;4.10;3.70;;;7.30;99.90;;;;;;5013792;28;20228;-75
2021/01/14 07:08:16;;;;;;;5.37;3.23;;;7.30;99.90;;;;;;5013243;28;20207;-77
2021/01/14 07:10:59;;;;;;;3.70;3.37;;;7.30;99.90;;;;;;5014156;28;20204;-75
2021/01/14 07:13:30;;;;;;;3.90;3.60;;;7.30;99.90;;;;;;5013575;28;20208;-72
2021/01/14 07:15:59;;;;;;;6.00;3.90;;;7.20;99.90;;;;;;5013451;28;20282;-74
2021/01/14 07:18:28;;;;;;;5.47;3.80;;;7.30;99.90;;;;;;5013349;28;20616;-74
2021/01/14 07:21:02;;;;;;;6.27;3.67;;;7.30;99.90;;;;;;5012652;28;20223;-75
2021/01/14 07:23:33;;;;;;;3.57;3.23;;;7.40;99.90;;;;;;5013356;28;20212;-74
2021/01/14 07:26:01;;;;;;;4.83;3.33;;;7.40;99.90;;;;;;5013006;28;20212;-74
2021/01/14 07:28:28;;;;;;;3.60;2.97;;;7.30;99.90;;;;;;5013330;28;20243;-75
2021/01/14 07:30:54;;;;;;;3.33;2.67;;;7.30;99.90;;;;;;5012878;28;20208;-81
2021/01/14 07:33:28;;;;;;;4.87;3.10;;;7.30;99.90;;;;;;5013268;28;20212;-74
2021/01/14 07:35:55;;;;;;;3.77;3.40;;;7.40;99.90;;;;;;5012823;28;20211;-74
2021/01/14 07:38:22;;;;;;;3.50;3.20;;;7.40;99.90;;;;;;5013486;28;20232;-73
2021/01/14 07:40:54;;;;;;;4.13;3.67;;;7.40;99.90;;;;;;5013073;28;20208;-74
2021/01/14 07:43:32;;;;;;;4.20;3.40;;;7.40;99.90;;;;;;5010364;28;20557;-74
2021/01/14 07:46:20;;;;;;;3.73;3.43;;;7.50;99.90;;;;;;5009669;28;20203;-74
2021/01/14 07:48:48;;;;;;;4.20;3.40;;;7.40;99.90;;;;;;5010025;28;20303;-75
2021/01/14 07:51:15;;;;;;;4.77;3.43;;;7.40;99.90;;;;;;5012336;28;20215;-73
2021/01/14 07:53:42;;;;;;;5.40;4.50;;;7.40;99.90;;;;;;5011856;28;20262;-75
2021/01/14 07:56:25;;;;;;;3.13;2.80;;;7.50;99.90;;;;;;5010970;28;20218;-74
2021/01/14 07:58:55;;;;;;;2.90;2.60;;;7.60;99.90;;;;;;5012919;28;20208;-75
2021/01/14 08:01:22;;;;;;;4.33;2.43;;;7.60;99.90;;;;;;5012903;28;20231;-75
2021/01/14 08:03:49;;;;;;;3.93;3.10;;;7.50;99.90;;;;;;5012939;28;20706;-74
2021/01/14 08:06:35;;;;;;;3.00;2.27;;;7.60;99.90;;;;;;5012196;28;20204;-75
2021/01/14 08:09:03;;;;;;;4.03;2.30;;;7.60;99.90;;;;;;5012623;28;20226;-75
2021/01/14 08:11:31;;;;;;;3.80;3.50;;;7.70;99.90;;;;;;5012285;28;20208;-74
2021/01/14 08:14:17;;;;;;;3.07;2.77;;;7.70;99.90;;;;;;5012647;28;20246;-74
2021/01/14 08:16:47;;;;;;;3.33;3.03;;;7.60;99.90;;;;;;5011810;28;20231;-76
2021/01/14 08:19:37;;;;;;;3.17;2.87;;;7.60;99.90;;;;;;5010259;28;20668;-74
2021/01/14 08:22:12;;;;;;;4.63;3.27;;;7.60;99.90;;;;;;4994168;28;20307;-76
2021/01/14 08:24:45;;;;;;;3.57;3.27;;;7.60;99.90;;;;;;5012310;28;20294;-73
2021/01/14 08:27:13;;;;;;;8.20;3.60;;;7.60;99.90;;;;;;5012269;28;20204;-77
2021/01/14 08:29:50;;;;;;;4.73;3.80;;;7.60;99.90;;;;;;5012117;28;20208;-77
2021/01/14 08:32:47;;;;;;;5.23;4.10;;;7.60;99.90;;;;;;5012300;28;20226;-73
2021/01/14 08:35:25;;;;;;;4.73;3.73;;;7.50;99.90;;;;;;5011974;28;20211;-74
2021/01/14 08:37:53;;;;;;;7.67;5.80;;;7.50;99.90;;;;;;5011742;28;20232;-75
2021/01/14 08:40:25;;;;;;;7.30;4.43;;;7.50;99.90;;;;;;5012334;28;20649;-76
2021/01/14 08:43:06;;;;;;;5.37;4.13;;;7.50;99.90;;;;;;5015329;28;20204;-72
2021/01/14 08:45:36;;;;;;;8.37;4.67;;;7.50;99.90;;;;;;5004832;28;20258;-72
2021/01/14 08:48:07;;;;;;;7.20;4.17;;;7.60;99.90;;;;;;5011819;28;20204;-77
2021/01/14 08:50:45;;;;;;;9.07;5.13;;;7.60;99.90;;;;;;5014886;28;20207;-75
2021/01/14 08:53:13;;;;;;;6.13;4.37;;;7.70;99.90;;;;;;5013323;28;20207;-74
2021/01/14 08:55:40;;;;;;;4.67;4.17;;;7.80;99.90;;;;;;5011121;28;20265;-79
2021/01/14 08:58:08;;;;;;;7.23;5.77;;;7.90;99.90;;;;;;5011708;28;20604;-78
2021/01/14 09:00:37;;;;;;;6.47;4.77;;;7.90;99.90;;;;;;5012060;28;20266;-78
2021/01/14 09:03:04;;;;;;;8.33;5.60;;;7.90;99.90;;;;;;5011365;28;20299;-75
2021/01/14 09:05:32;;;;;;;6.70;4.93;;;7.90;99.90;;;;;;5009972;28;20231;-73
2021/01/14 09:08:05;;;;;;;8.67;5.67;;;7.90;99.90;;;;;;5015931;28;20216;-75
2021/01/14 09:10:49;;;;;;;8.10;5.13;;;7.80;99.90;;;;;;5007503;28;20197;-75
2021/01/14 09:13:17;;;;;;;6.30;4.80;;;8.40;99.90;;;;;;5007795;28;20586;-75
2021/01/14 09:15:45;;;;;;;6.00;4.27;;;9.00;99.90;;;;;;5003676;28;20215;-73
2021/01/14 09:18:13;;;;;;;7.23;4.97;;;8.70;99.90;;;;;;5010974;28;20727;-75
2021/01/14 09:20:39;;;;;;;3.97;3.43;;;8.70;99.90;;;;;;5011528;28;20231;-77
2021/01/14 09:23:20;;;;;;;5.63;4.37;;;9.00;99.90;;;;;;5010803;28;20593;-74
2021/01/14 09:25:49;;;;;;;4.40;3.43;;;10.90;99.90;;;;;;5001566;28;20689;-73
2021/01/14 09:28:16;;;;;;;4.67;3.90;;;10.40;99.90;;;;;;5011431;28;20338;-77
2021/01/14 09:30:44;;;;;;;4.63;2.87;;;10.50;99.90;;;;;;5012072;28;20594;-79
2021/01/14 09:33:11;;;;;;;4.27;3.77;;;10.00;99.90;;;;;;5004937;28;20620;-77
2021/01/14 09:35:38;;;;;;;3.73;3.43;;;10.80;99.90;;;;;;5011258;28;20220;-79
2021/01/14 09:38:05;;;;;;;3.60;2.97;;;11.10;99.90;;;;;;5017154;28;20714;-79
2021/01/14 09:40:31;;;;;;;3.60;2.50;;;11.00;99.90;;;;;;5018158;28;20215;-82
2021/01/14 09:43:00;;;;;;;3.77;2.40;;;12.10;99.90;;;;;;5010375;28;20204;-72
2021/01/14 09:45:27;;;;;;;1.87;1.70;;;12.80;99.90;;;;;;5012733;28;20649;-77
2021/01/14 09:47:54;;;;;;;2.10;1.53;;;14.40;99.90;;;;;;5011579;28;20231;-78
2021/01/14 09:50:25;;;;;;;2.08;1.52;;;15.50;99.90;;;;;;4999120;28;20228;-75
2021/01/14 09:52:53;;;;;;;2.63;1.50;;;15.20;99.90;;;;;;5006735;28;20690;-73
2021/01/14 09:55:20;;;;;;;2.35;1.73;;;15.90;99.90;;;;;;4993880;28;21067;-75
2021/01/14 09:57:51;;;;;;;2.78;2.25;;;17.90;99.90;;;;;;5005776;28;20282;-75
2021/01/14 10:00:22;;;;;;;4.43;2.03;;;15.20;99.90;;;;;;5009237;28;20212;-78
2021/01/14 10:02:53;;;;;;;3.28;1.90;;;12.30;99.90;;;;;;5024544;28;20214;-76
2021/01/14 10:05:22;;;;;;;2.13;1.40;;;11.20;99.90;;;;;;5011641;28;20254;-75
2021/01/14 10:07:53;;;;;;;3.50;1.65;;;10.50;99.90;;;;;;5015707;28;20742;-75
2021/01/14 10:10:20;;;;;;;2.63;1.77;;;14.30;99.90;;;;;;5018163;28;20566;-74
2021/01/14 10:12:54;;;;;;;2.92;2.35;;;14.50;99.90;;;;;;5011058;28;20373;-71
2021/01/14 10:15:21;;;;;;;4.57;2.50;;;16.40;99.90;;;;;;5012080;28;20200;-72
2021/01/14 10:17:47;;;;;;;1.60;1.33;;;17.40;99.90;;;;;;5010343;28;20710;-73
2021/01/14 10:20:15;;;;;;;2.15;1.30;;;14.40;99.90;;;;;;5010424;28;20201;-71
2021/01/14 10:22:49;;;;;;;1.80;1.55;;;12.70;99.90;;;;;;5010735;28;20668;-70
2021/01/14 10:25:16;;;;;;;3.70;2.33;;;12.80;99.90;;;;;;5010375;28;20207;-71
2021/01/14 10:27:57;;;;;;;1.25;1.10;;;15.00;99.90;;;;;;5011050;28;20223;-70
2021/01/14 10:30:25;;;;;;;2.25;1.20;;;15.70;99.90;;;;;;5010264;28;20200;-69
2021/01/14 10:33:00;;;;;;;1.88;1.10;;;13.20;99.90;;;;;;5010197;28;20208;-73
2021/01/14 10:35:28;;;;;;;2.30;1.95;;;11.80;99.90;;;;;;5010322;28;20200;-70
2021/01/14 10:38:07;;;;;;;2.42;1.10;;;11.80;99.90;;;;;;5008837;28;20710;-71
2021/01/14 10:40:40;;;;;;;4.60;1.50;;;11.70;99.90;;;;;;5010474;28;20227;-70
2021/01/14 10:43:06;;;;;;;3.05;2.03;;;11.90;99.90;;;;;;5009736;28;20254;-72
2021/01/14 10:45:35;;;;;;;1.88;1.40;;;12.00;99.90;;;;;;5010334;28;20220;-71
2021/01/14 10:48:12;;;;;;;1.88;1.20;;;12.10;99.90;;;;;;5009868;28;20215;-76
2021/01/14 10:50:48;;;;;;;1.10;0.80;;;11.80;99.90;;;;;;5010303;28;20701;-73
2021/01/14 10:53:25;;;;;;;1.92;1.05;;;11.50;99.90;;;;;;5022832;28;20589;-73
2021/01/14 10:56:05;;;;;;;2.37;1.60;;;11.70;99.90;;;;;;5007935;28;20212;-74
2021/01/14 10:58:32;;;;;;;4.47;0.90;;;11.50;99.90;;;;;;5005418;28;20720;-78
2021/01/14 11:00:59;;;;;;;2.80;0.70;;;11.40;99.90;;;;;;5009763;28;20682;-75
2021/01/14 11:03:27;;;;;;;2.23;0.80;;;11.40;99.90;;;;;;5020164;28;20255;-76
2021/01/14 11:05:57;;;;;;;1.50;1.27;;;11.40;99.90;;;;;;5010158;28;20208;-77
2021/01/14 11:08:26;;;;;;;3.17;1.07;;;11.50;99.90;;;;;;5009114;28;20684;-71
2021/01/14 11:11:04;;;;;;;2.23;1.10;;;11.70;99.90;;;;;;5019877;28;20215;-78
2021/01/14 11:13:38;;;;;;;2.17;1.97;;;11.40;99.90;;;;;;5009864;28;20660;-76
2021/01/14 11:16:05;;;;;;;1.53;1.13;;;11.20;99.90;;;;;;5010909;28;20204;-75
2021/01/14 11:18:35;;;;;;;1.57;1.10;;;11.00;99.90;;;;;;5019681;28;20232;-75
2021/01/14 11:21:01;;;;;;;1.47;1.07;;;10.50;99.90;;;;;;5015120;28;20568;-75
2021/01/14 11:23:29;;;;;;;2.00;0.70;;;10.30;99.90;;;;;;5024316;28;20214;-73
2021/01/14 11:25:56;;;;;;;1.23;0.60;;;10.30;99.90;;;;;;5013366;28;20211;-71
2021/01/14 11:28:22;;;;;;;2.73;1.00;;;10.10;99.90;;;;;;5013348;28;20208;-73
2021/01/14 11:30:48;;;;;;;2.37;0.40;;;10.20;99.90;;;;;;5009575;28;20204;-75
2021/01/14 11:33:15;;;;;;;0.97;0.83;;;10.50;99.90;;;;;;5012665;28;20266;-75
2021/01/14 11:35:42;;;;;;;2.27;0.50;;;10.60;99.90;;;;;;5013712;28;20212;-73
2021/01/14 11:38:08;;;;;;;1.93;0.60;;;10.50;99.90;;;;;;5008296;28;20224;-76
2021/01/14 11:40:35;;;;;;;1.27;0.60;;;10.40;99.90;;;;;;5008246;28;20211;-76
2021/01/14 11:43:02;;;;;;;2.07;1.17;;;10.80;99.90;;;;;;5012618;28;20227;-71
2021/01/14 11:45:28;;;;;;;1.27;0.70;;;10.90;99.90;;;;;;5018913;28;20212;-73
2021/01/14 11:47:55;;;;;;;1.40;0.80;;;11.10;99.90;;;;;;5012904;28;20212;-75
2021/01/14 11:50:22;;;;;;;1.30;0.77;;;11.00;99.90;;;;;;5013445;28;20207;-74
2021/01/14 11:52:49;;;;;;;1.13;0.67;;;11.00;99.90;;;;;;5013143;28;20219;-73
2021/01/14 11:55:15;;;;;;;1.20;0.80;;;11.10;99.90;;;;;;5013202;28;20633;-72
2021/01/14 11:57:43;;;;;;;1.13;0.47;;;11.10;99.90;;;;;;5013415;28;20231;-75
2021/01/14 12:00:10;;;;;;;2.30;0.70;;;11.20;99.90;;;;;;5012652;28;20211;-73
2021/01/14 12:02:37;;;;;;;0.90;0.70;;;11.10;99.90;;;;;;5012977;28;20679;-72
2021/01/14 12:05:05;;;;;;;0.87;0.57;;;11.30;99.90;;;;;;5012337;28;20244;-75
2021/01/14 12:07:32;;;;;;;1.20;0.43;;;11.20;99.90;;;;;;5012432;28;20208;-72
2021/01/14 12:09:58;;;;;;;0.50;0.40;;;11.00;99.90;;;;;;5013033;28;22274;-71
2021/01/14 12:12:25;;;;;;;0.50;0.50;;;10.70;99.90;;;;;;5015706;28;20226;-74
2021/01/14 12:14:52;;;;;;;2.47;0.50;;;10.50;99.90;;;;;;5000133;28;20223;-73
2021/01/14 12:17:19;;;;;;;3.63;0.83;;;10.40;99.90;;;;;;5011101;28;20228;-71
2021/01/14 12:19:45;;;;;;;1.50;0.60;;;10.50;99.90;;;;;;5014675;28;20212;-71
2021/01/14 12:22:12;;;;;;;2.83;1.33;;;10.90;99.90;;;;;;5011237;28;20643;-72
2021/01/14 12:24:38;;;;;;;1.10;0.70;;;11.00;99.90;;;;;;5023404;28;20257;-72
2021/01/14 12:27:05;;;;;;;4.83;1.00;;;11.10;99.90;;;;;;5010064;28;20262;-74
2021/01/14 12:29:31;;;;;;;1.90;0.70;;;11.00;99.90;;;;;;5021701;28;20215;-72
2021/01/14 12:31:59;;;;;;;1.13;0.90;;;11.10;99.90;;;;;;5014188;28;20204;-71
2021/01/14 12:34:25;;;;;;;3.67;0.70;;;11.00;99.90;;;;;;5019457;28;20204;-78
2021/01/14 12:36:55;;;;;;;0.73;0.70;;;10.80;99.90;;;;;;5011571;28;20204;-74
2021/01/14 12:39:21;;;;;;;2.87;0.57;;;10.40;99.90;;;;;;5012356;28;20204;-74
2021/01/14 12:41:47;;;;;;;1.57;0.73;;;10.10;99.90;;;;;;5012073;28;20212;-71
2021/01/14 12:44:14;;;;;;;2.60;1.20;;;10.00;99.90;;;;;;5012061;28;20199;-71
2021/01/14 12:46:42;;;;;;;0.60;0.50;;;10.00;99.90;;;;;;5012487;28;20208;-76
2021/01/14 12:49:10;;;;;;;1.70;0.90;;;10.30;99.90;;;;;;5011719;28;20227;-74
2021/01/14 12:51:38;;;;;;;0.63;0.43;;;10.40;99.90;;;;;;5007472;28;20382;-73
2021/01/14 12:54:06;;;;;;;1.23;0.63;;;10.50;99.90;;;;;;5005568;28;20204;-72
2021/01/14 12:56:32;;;;;;;0.93;0.80;;;10.70;99.90;;;;;;5010523;28;20684;-73
2021/01/14 12:59:00;;;;;;;2.40;1.20;;;11.00;99.90;;;;;;5010396;28;20236;-72
2021/01/14 13:01:30;;;;;;;19.43;5.33;;;11.10;99.90;;;;;;5004255;28;20298;-77
2021/01/14 13:03:57;;;;;;;3.60;1.40;;;11.10;99.90;;;;;;5008703;28;20574;-73
2021/01/14 13:06:26;;;;;;;3.33;1.77;;;10.90;99.90;;;;;;5006448;28;20677;-72
2021/01/14 13:08:53;;;;;;;2.67;1.10;;;10.60;99.90;;;;;;5013185;28;20270;-83